sensor_id;sensor_type;location;lat;lon;timestamp;P1;durP1;ratioP1;P2;durP2;ratioP2
48524;SDS011;34316;51.514;-0.178;2022-12-26T00:00:20;51.15;;;27.50;;
48524;SDS011;34316;51.514;-0.178;2022-12-26T00:02:22;52.83;;;26.33;;
48524;SDS011;34316;51.514;-0.178;2022-12-26T00:04:24;44.97;;;23.83;;
48524;SDS011;34316;51.514;-0.178;2022-12-26T00:06:46;40.60;;;23.00;;
48524;SDS011;34316;51.514;-0.178;2022-12-26T00:08:48;41.15;;;22.42;;
48524;SDS011;34316;51.514;-0.178;2022-12-26T00:10:50;42.83;;;23.05;;
48524;SDS011;34316;51.514;-0.178;2022-12-26T00:12:52;39.30;;;22.38;;
48524;SDS011;34316;51.514;-0.178;2022-12-26T00:14:53;37.83;;;22.63;;
48524;SDS011;34316;51.514;-0.178;2022-12-26T00:16:55;43.30;;;23.42;;
48524;SDS011;34316;51.514;-0.178;2022-12-26T00:18:57;30.48;;;17.42;;
48524;SDS011;34316;51.514;-0.178;2022-12-26T00:20:59;32.65;;;18.55;;
48524;SDS011;34316;51.514;-0.178;2022-12-26T00:23:01;33.60;;;18.98;;
48524;SDS011;34316;51.514;-0.178;2022-12-26T00:25:03;36.78;;;19.42;;
48524;SDS011;34316;51.514;-0.178;2022-12-26T00:27:05;37.53;;;20.95;;
48524;SDS011;34316;51.514;-0.178;2022-12-26T00:29:07;39.42;;;21.50;;
48524;SDS011;34316;51.514;-0.178;2022-12-26T00:31:10;40.30;;;21.90;;
48524;SDS011;34316;51.514;-0.178;2022-12-26T00:33:14;39.25;;;22.67;;
48524;SDS011;34316;51.514;-0.178;2022-12-26T00:35:15;40.75;;;21.92;;
48524;SDS011;34316;51.514;-0.178;2022-12-26T00:37:17;31.38;;;18.35;;
48524;SDS011;34316;51.514;-0.178;2022-12-26T00:39:19;27.38;;;14.80;;
48524;SDS011;34316;51.514;-0.178;2022-12-26T00:41:21;24.25;;;14.75;;
48524;SDS011;34316;51.514;-0.178;2022-12-26T00:43:22;28.20;;;16.08;;
48524;SDS011;34316;51.514;-0.178;2022-12-26T00:45:24;25.33;;;15.23;;
48524;SDS011;34316;51.514;-0.178;2022-12-26T00:47:26;26.85;;;15.88;;
48524;SDS011;34316;51.514;-0.178;2022-12-26T00:49:27;30.27;;;17.23;;
48524;SDS011;34316;51.514;-0.178;2022-12-26T00:51:49;33.53;;;17.52;;
48524;SDS011;34316;51.514;-0.178;2022-12-26T00:53:51;31.00;;;17.48;;
48524;SDS011;34316;51.514;-0.178;2022-12-26T00:55:53;25.60;;;14.75;;
48524;SDS011;34316;51.514;-0.178;2022-12-26T00:57:54;27.35;;;13.85;;
48524;SDS011;34316;51.514;-0.178;2022-12-26T00:59:56;27.70;;;14.40;;
48524;SDS011;34316;51.514;-0.178;2022-12-26T01:01:58;27.60;;;15.73;;
48524;SDS011;34316;51.514;-0.178;2022-12-26T01:04:00;21.52;;;13.63;;
48524;SDS011;34316;51.514;-0.178;2022-12-26T01:06:02;25.42;;;14.80;;
48524;SDS011;34316;51.514;-0.178;2022-12-26T01:08:05;24.50;;;13.60;;
48524;SDS011;34316;51.514;-0.178;2022-12-26T01:10:24;22.90;;;13.35;;
48524;SDS011;34316;51.514;-0.178;2022-12-26T01:12:27;27.33;;;14.60;;
48524;SDS011;34316;51.514;-0.178;2022-12-26T01:14:28;24.63;;;13.70;;
48524;SDS011;34316;51.514;-0.178;2022-12-26T01:16:30;23.35;;;13.05;;
48524;SDS011;34316;51.514;-0.178;2022-12-26T01:18:33;22.85;;;11.95;;
48524;SDS011;34316;51.514;-0.178;2022-12-26T01:20:35;24.83;;;13.98;;
48524;SDS011;34316;51.514;-0.178;2022-12-26T01:22:38;22.88;;;13.85;;
48524;SDS011;34316;51.514;-0.178;2022-12-26T01:24:40;22.23;;;13.68;;
48524;SDS011;34316;51.514;-0.178;2022-12-26T01:26:41;26.80;;;14.68;;
48524;SDS011;34316;51.514;-0.178;2022-12-26T01:28:43;25.90;;;15.13;;
48524;SDS011;34316;51.514;-0.178;2022-12-26T01:30:45;28.40;;;15.50;;
48524;SDS011;34316;51.514;-0.178;2022-12-26T01:32:47;28.92;;;16.38;;
48524;SDS011;34316;51.514;-0.178;2022-12-26T01:34:48;26.27;;;15.90;;
48524;SDS011;34316;51.514;-0.178;2022-12-26T01:36:52;27.67;;;16.67;;
48524;SDS011;34316;51.514;-0.178;2022-12-26T01:38:54;26.17;;;16.13;;
48524;SDS011;34316;51.514;-0.178;2022-12-26T01:40:56;27.25;;;16.45;;
48524;SDS011;34316;51.514;-0.178;2022-12-26T01:43:16;29.23;;;17.48;;
48524;SDS011;34316;51.514;-0.178;2022-12-26T01:45:27;27.02;;;16.73;;
48524;SDS011;34316;51.514;-0.178;2022-12-26T01:49:51;26.85;;;17.25;;
48524;SDS011;34316;51.514;-0.178;2022-12-26T01:51:56;26.63;;;15.68;;
48524;SDS011;34316;51.514;-0.178;2022-12-26T01:54:00;26.67;;;16.30;;
48524;SDS011;34316;51.514;-0.178;2022-12-26T01:56:25;26.75;;;15.80;;
48524;SDS011;34316;51.514;-0.178;2022-12-26T01:58:34;30.20;;;16.70;;
48524;SDS011;34316;51.514;-0.178;2022-12-26T02:00:38;29.40;;;17.33;;
48524;SDS011;34316;51.514;-0.178;2022-12-26T02:02:40;31.02;;;17.05;;
48524;SDS011;34316;51.514;-0.178;2022-12-26T02:05:02;27.85;;;16.80;;
48524;SDS011;34316;51.514;-0.178;2022-12-26T02:07:23;30.40;;;17.60;;
48524;SDS011;34316;51.514;-0.178;2022-12-26T02:09:25;33.22;;;17.83;;
48524;SDS011;34316;51.514;-0.178;2022-12-26T02:11:28;32.28;;;18.15;;
48524;SDS011;34316;51.514;-0.178;2022-12-26T02:13:35;27.63;;;17.73;;
48524;SDS011;34316;51.514;-0.178;2022-12-26T02:15:37;30.38;;;18.45;;
48524;SDS011;34316;51.514;-0.178;2022-12-26T02:17:39;28.13;;;17.33;;
48524;SDS011;34316;51.514;-0.178;2022-12-26T02:21:57;28.23;;;17.08;;
48524;SDS011;34316;51.514;-0.178;2022-12-26T02:34:24;31.55;;;17.20;;
48524;SDS011;34316;51.514;-0.178;2022-12-26T02:36:55;39.38;;;19.60;;
48524;SDS011;34316;51.514;-0.178;2022-12-26T02:44:05;31.85;;;18.77;;
48524;SDS011;34316;51.514;-0.178;2022-12-26T02:46:31;31.15;;;18.27;;
48524;SDS011;34316;51.514;-0.178;2022-12-26T02:56:21;31.90;;;19.20;;
48524;SDS011;34316;51.514;-0.178;2022-12-26T02:58:57;31.42;;;17.63;;
48524;SDS011;34316;51.514;-0.178;2022-12-26T03:01:41;35.08;;;19.17;;
48524;SDS011;34316;51.514;-0.178;2022-12-26T03:04:05;32.38;;;20.35;;
48524;SDS011;34316;51.514;-0.178;2022-12-26T03:06:30;31.23;;;19.13;;
48524;SDS011;34316;51.514;-0.178;2022-12-26T03:08:51;31.20;;;19.70;;
48524;SDS011;34316;51.514;-0.178;2022-12-26T03:11:14;29.08;;;19.45;;
48524;SDS011;34316;51.514;-0.178;2022-12-26T03:13:34;34.35;;;19.85;;
48524;SDS011;34316;51.514;-0.178;2022-12-26T03:15:48;37.10;;;20.60;;
48524;SDS011;34316;51.514;-0.178;2022-12-26T03:18:14;30.88;;;19.00;;
48524;SDS011;34316;51.514;-0.178;2022-12-26T03:22:48;30.08;;;18.17;;
48524;SDS011;34316;51.514;-0.178;2022-12-26T03:24:53;29.92;;;18.95;;
48524;SDS011;34316;51.514;-0.178;2022-12-26T03:27:14;33.97;;;19.60;;
48524;SDS011;34316;51.514;-0.178;2022-12-26T03:29:16;31.83;;;18.63;;
48524;SDS011;34316;51.514;-0.178;2022-12-26T03:31:38;34.75;;;19.05;;
48524;SDS011;34316;51.514;-0.178;2022-12-26T03:33:45;32.83;;;18.65;;
48524;SDS011;34316;51.514;-0.178;2022-12-26T03:36:06;28.52;;;19.05;;
48524;SDS011;34316;51.514;-0.178;2022-12-26T03:38:12;31.42;;;19.25;;
48524;SDS011;34316;51.514;-0.178;2022-12-26T03:43:15;30.70;;;19.20;;
48524;SDS011;34316;51.514;-0.178;2022-12-26T03:46:09;29.10;;;19.05;;
48524;SDS011;34316;51.514;-0.178;2022-12-26T03:48:56;30.35;;;18.55;;
48524;SDS011;34316;51.514;-0.178;2022-12-26T03:51:46;24.02;;;14.75;;
48524;SDS011;34316;51.514;-0.178;2022-12-26T03:54:13;22.92;;;14.35;;
48524;SDS011;34316;51.514;-0.178;2022-12-26T03:59:30;29.05;;;16.00;;
48524;SDS011;34316;51.514;-0.178;2022-12-26T04:01:57;28.08;;;17.10;;
48524;SDS011;34316;51.514;-0.178;2022-12-26T04:04:21;30.77;;;18.00;;
48524;SDS011;34316;51.514;-0.178;2022-12-26T04:06:44;32.05;;;17.83;;
48524;SDS011;34316;51.514;-0.178;2022-12-26T04:09:21;31.48;;;16.30;;
48524;SDS011;34316;51.514;-0.178;2022-12-26T04:11:52;21.52;;;13.52;;
48524;SDS011;34316;51.514;-0.178;2022-12-26T04:16:50;21.98;;;13.32;;
48524;SDS011;34316;51.514;-0.178;2022-12-26T04:21:46;23.55;;;12.93;;
48524;SDS011;34316;51.514;-0.178;2022-12-26T04:24:21;29.80;;;15.20;;
48524;SDS011;34316;51.514;-0.178;2022-12-26T04:26:45;24.40;;;14.35;;
48524;SDS011;34316;51.514;-0.178;2022-12-26T04:29:07;25.88;;;14.95;;
48524;SDS011;34316;51.514;-0.178;2022-12-26T04:31:35;26.98;;;15.00;;
48524;SDS011;34316;51.514;-0.178;2022-12-26T04:34:02;24.13;;;15.27;;
48524;SDS011;34316;51.514;-0.178;2022-12-26T04:36:32;26.95;;;15.77;;
48524;SDS011;34316;51.514;-0.178;2022-12-26T04:38:59;26.75;;;15.63;;
48524;SDS011;34316;51.514;-0.178;2022-12-26T04:41:22;24.52;;;15.82;;
48524;SDS011;34316;51.514;-0.178;2022-12-26T04:43:42;25.70;;;15.13;;
48524;SDS011;34316;51.514;-0.178;2022-12-26T04:46:03;27.45;;;15.38;;
48524;SDS011;34316;51.514;-0.178;2022-12-26T04:48:05;24.33;;;15.63;;
48524;SDS011;34316;51.514;-0.178;2022-12-26T04:50:25;23.67;;;14.20;;
48524;SDS011;34316;51.514;-0.178;2022-12-26T04:52:27;22.35;;;14.63;;
48524;SDS011;34316;51.514;-0.178;2022-12-26T04:54:49;26.30;;;14.45;;
48524;SDS011;34316;51.514;-0.178;2022-12-26T04:56:52;27.67;;;14.45;;
48524;SDS011;34316;51.514;-0.178;2022-12-26T04:58:53;23.90;;;14.70;;
48524;SDS011;34316;51.514;-0.178;2022-12-26T05:00:56;23.05;;;13.85;;
48524;SDS011;34316;51.514;-0.178;2022-12-26T05:03:18;26.60;;;14.60;;
48524;SDS011;34316;51.514;-0.178;2022-12-26T05:05:39;23.67;;;14.20;;
48524;SDS011;34316;51.514;-0.178;2022-12-26T05:08:03;23.75;;;14.35;;
48524;SDS011;34316;51.514;-0.178;2022-12-26T05:10:27;21.65;;;13.77;;
48524;SDS011;34316;51.514;-0.178;2022-12-26T05:12:29;22.02;;;13.48;;
48524;SDS011;34316;51.514;-0.178;2022-12-26T05:14:31;23.60;;;14.13;;
48524;SDS011;34316;51.514;-0.178;2022-12-26T05:16:36;22.38;;;14.27;;
48524;SDS011;34316;51.514;-0.178;2022-12-26T05:18:56;20.60;;;13.27;;
48524;SDS011;34316;51.514;-0.178;2022-12-26T05:21:16;21.02;;;12.93;;
48524;SDS011;34316;51.514;-0.178;2022-12-26T05:23:37;23.67;;;13.48;;
48524;SDS011;34316;51.514;-0.178;2022-12-26T05:25:58;23.70;;;13.93;;
48524;SDS011;34316;51.514;-0.178;2022-12-26T05:28:19;23.52;;;13.48;;
48524;SDS011;34316;51.514;-0.178;2022-12-26T05:30:39;22.92;;;13.63;;
48524;SDS011;34316;51.514;-0.178;2022-12-26T05:32:41;23.58;;;13.15;;
48524;SDS011;34316;51.514;-0.178;2022-12-26T05:35:01;20.40;;;13.02;;
48524;SDS011;34316;51.514;-0.178;2022-12-26T05:37:03;20.05;;;11.63;;
48524;SDS011;34316;51.514;-0.178;2022-12-26T05:39:05;22.17;;;13.50;;
48524;SDS011;34316;51.514;-0.178;2022-12-26T05:41:07;20.23;;;12.70;;
48524;SDS011;34316;51.514;-0.178;2022-12-26T05:43:09;24.92;;;16.40;;
48524;SDS011;34316;51.514;-0.178;2022-12-26T05:45:11;35.90;;;23.42;;
48524;SDS011;34316;51.514;-0.178;2022-12-26T05:47:12;47.17;;;29.73;;
48524;SDS011;34316;51.514;-0.178;2022-12-26T05:49:14;43.65;;;28.83;;
48524;SDS011;34316;51.514;-0.178;2022-12-26T05:51:16;40.72;;;27.95;;
48524;SDS011;34316;51.514;-0.178;2022-12-26T05:53:17;40.47;;;25.20;;
48524;SDS011;34316;51.514;-0.178;2022-12-26T05:55:19;43.33;;;25.80;;
48524;SDS011;34316;51.514;-0.178;2022-12-26T05:57:21;39.28;;;24.60;;
48524;SDS011;34316;51.514;-0.178;2022-12-26T05:59:23;41.75;;;25.20;;
48524;SDS011;34316;51.514;-0.178;2022-12-26T06:01:25;40.10;;;25.52;;
48524;SDS011;34316;51.514;-0.178;2022-12-26T06:03:28;39.22;;;24.55;;
48524;SDS011;34316;51.514;-0.178;2022-12-26T06:05:30;38.33;;;22.42;;
48524;SDS011;34316;51.514;-0.178;2022-12-26T06:07:31;32.47;;;20.70;;
48524;SDS011;34316;51.514;-0.178;2022-12-26T06:09:33;31.38;;;19.73;;
48524;SDS011;34316;51.514;-0.178;2022-12-26T06:11:35;30.88;;;19.98;;
48524;SDS011;34316;51.514;-0.178;2022-12-26T06:13:37;34.15;;;21.73;;
48524;SDS011;34316;51.514;-0.178;2022-12-26T06:15:39;34.53;;;21.15;;
48524;SDS011;34316;51.514;-0.178;2022-12-26T06:17:41;35.00;;;21.73;;
48524;SDS011;34316;51.514;-0.178;2022-12-26T06:19:42;36.13;;;21.98;;
48524;SDS011;34316;51.514;-0.178;2022-12-26T06:21:47;36.22;;;21.40;;
48524;SDS011;34316;51.514;-0.178;2022-12-26T06:23:49;33.60;;;20.85;;
48524;SDS011;34316;51.514;-0.178;2022-12-26T06:25:54;32.88;;;20.45;;
48524;SDS011;34316;51.514;-0.178;2022-12-26T06:27:56;31.40;;;19.52;;
48524;SDS011;34316;51.514;-0.178;2022-12-26T06:29:58;31.90;;;19.58;;
48524;SDS011;34316;51.514;-0.178;2022-12-26T06:32:00;29.42;;;18.60;;
48524;SDS011;34316;51.514;-0.178;2022-12-26T06:34:01;32.63;;;18.63;;
48524;SDS011;34316;51.514;-0.178;2022-12-26T06:36:10;30.55;;;18.55;;
48524;SDS011;34316;51.514;-0.178;2022-12-26T06:38:14;29.88;;;17.95;;
48524;SDS011;34316;51.514;-0.178;2022-12-26T06:40:16;32.20;;;17.40;;
48524;SDS011;34316;51.514;-0.178;2022-12-26T06:42:17;24.80;;;16.63;;
48524;SDS011;34316;51.514;-0.178;2022-12-26T06:44:19;33.72;;;17.65;;
48524;SDS011;34316;51.514;-0.178;2022-12-26T06:46:22;26.45;;;16.50;;
48524;SDS011;34316;51.514;-0.178;2022-12-26T06:48:25;30.77;;;17.80;;
48524;SDS011;34316;51.514;-0.178;2022-12-26T06:50:27;33.55;;;18.90;;
48524;SDS011;34316;51.514;-0.178;2022-12-26T06:52:29;31.50;;;18.17;;
48524;SDS011;34316;51.514;-0.178;2022-12-26T06:54:30;29.83;;;17.85;;
48524;SDS011;34316;51.514;-0.178;2022-12-26T06:56:32;30.75;;;18.38;;
48524;SDS011;34316;51.514;-0.178;2022-12-26T06:58:34;29.88;;;17.50;;
48524;SDS011;34316;51.514;-0.178;2022-12-26T07:00:36;30.58;;;18.52;;
48524;SDS011;34316;51.514;-0.178;2022-12-26T07:02:38;29.88;;;18.08;;
48524;SDS011;34316;51.514;-0.178;2022-12-26T07:04:40;30.13;;;17.88;;
48524;SDS011;34316;51.514;-0.178;2022-12-26T07:06:42;26.48;;;16.73;;
48524;SDS011;34316;51.514;-0.178;2022-12-26T07:08:44;30.92;;;17.33;;
48524;SDS011;34316;51.514;-0.178;2022-12-26T07:10:46;29.60;;;18.50;;
48524;SDS011;34316;51.514;-0.178;2022-12-26T07:12:47;28.23;;;17.48;;
48524;SDS011;34316;51.514;-0.178;2022-12-26T07:14:49;27.90;;;18.55;;
48524;SDS011;34316;51.514;-0.178;2022-12-26T07:16:52;28.45;;;17.38;;
48524;SDS011;34316;51.514;-0.178;2022-12-26T07:18:54;28.85;;;17.52;;
48524;SDS011;34316;51.514;-0.178;2022-12-26T07:20:57;36.38;;;20.35;;
48524;SDS011;34316;51.514;-0.178;2022-12-26T07:22:59;34.97;;;19.80;;
48524;SDS011;34316;51.514;-0.178;2022-12-26T07:25:00;33.78;;;18.48;;
48524;SDS011;34316;51.514;-0.178;2022-12-26T07:27:02;28.75;;;17.17;;
48524;SDS011;34316;51.514;-0.178;2022-12-26T07:29:04;33.38;;;17.60;;
48524;SDS011;34316;51.514;-0.178;2022-12-26T07:31:06;28.75;;;16.55;;
48524;SDS011;34316;51.514;-0.178;2022-12-26T07:33:07;27.73;;;18.50;;
48524;SDS011;34316;51.514;-0.178;2022-12-26T07:35:09;29.83;;;17.20;;
48524;SDS011;34316;51.514;-0.178;2022-12-26T07:37:11;28.90;;;16.45;;
48524;SDS011;34316;51.514;-0.178;2022-12-26T07:39:13;26.75;;;16.52;;
48524;SDS011;34316;51.514;-0.178;2022-12-26T07:41:15;29.00;;;17.55;;
48524;SDS011;34316;51.514;-0.178;2022-12-26T07:43:35;26.63;;;16.88;;
48524;SDS011;34316;51.514;-0.178;2022-12-26T07:45:37;25.80;;;16.52;;
48524;SDS011;34316;51.514;-0.178;2022-12-26T07:47:45;26.58;;;16.40;;
48524;SDS011;34316;51.514;-0.178;2022-12-26T07:49:47;27.83;;;16.25;;
48524;SDS011;34316;51.514;-0.178;2022-12-26T07:51:49;28.58;;;17.38;;
48524;SDS011;34316;51.514;-0.178;2022-12-26T07:53:51;29.48;;;17.63;;
48524;SDS011;34316;51.514;-0.178;2022-12-26T07:55:57;25.67;;;16.23;;
48524;SDS011;34316;51.514;-0.178;2022-12-26T07:57:59;34.25;;;17.25;;
48524;SDS011;34316;51.514;-0.178;2022-12-26T08:00:01;27.50;;;16.55;;
48524;SDS011;34316;51.514;-0.178;2022-12-26T08:02:05;26.55;;;16.75;;
48524;SDS011;34316;51.514;-0.178;2022-12-26T08:04:07;24.10;;;16.95;;
48524;SDS011;34316;51.514;-0.178;2022-12-26T08:06:11;26.98;;;17.85;;
48524;SDS011;34316;51.514;-0.178;2022-12-26T08:08:13;28.27;;;17.67;;
48524;SDS011;34316;51.514;-0.178;2022-12-26T08:10:15;26.88;;;18.40;;
48524;SDS011;34316;51.514;-0.178;2022-12-26T08:12:19;29.45;;;18.38;;
48524;SDS011;34316;51.514;-0.178;2022-12-26T08:14:22;32.15;;;19.05;;
48524;SDS011;34316;51.514;-0.178;2022-12-26T08:16:25;26.23;;;17.38;;
48524;SDS011;34316;51.514;-0.178;2022-12-26T08:18:27;28.10;;;17.80;;
48524;SDS011;34316;51.514;-0.178;2022-12-26T08:20:29;31.83;;;18.17;;
48524;SDS011;34316;51.514;-0.178;2022-12-26T08:22:30;31.27;;;18.42;;
48524;SDS011;34316;51.514;-0.178;2022-12-26T08:24:32;31.98;;;17.73;;
48524;SDS011;34316;51.514;-0.178;2022-12-26T08:26:34;31.25;;;19.38;;
48524;SDS011;34316;51.514;-0.178;2022-12-26T08:28:36;33.33;;;20.08;;
48524;SDS011;34316;51.514;-0.178;2022-12-26T08:30:38;34.05;;;19.50;;
48524;SDS011;34316;51.514;-0.178;2022-12-26T08:32:41;30.08;;;18.60;;
48524;SDS011;34316;51.514;-0.178;2022-12-26T08:34:46;29.15;;;19.00;;
48524;SDS011;34316;51.514;-0.178;2022-12-26T08:36:51;35.38;;;19.60;;
48524;SDS011;34316;51.514;-0.178;2022-12-26T08:38:53;31.40;;;19.05;;
48524;SDS011;34316;51.514;-0.178;2022-12-26T08:40:55;34.05;;;19.88;;
48524;SDS011;34316;51.514;-0.178;2022-12-26T08:42:57;32.10;;;20.65;;
48524;SDS011;34316;51.514;-0.178;2022-12-26T08:45:19;34.33;;;20.67;;
48524;SDS011;34316;51.514;-0.178;2022-12-26T08:47:20;37.75;;;22.50;;
48524;SDS011;34316;51.514;-0.178;2022-12-26T08:49:26;34.40;;;22.75;;
48524;SDS011;34316;51.514;-0.178;2022-12-26T08:51:28;33.55;;;21.58;;
48524;SDS011;34316;51.514;-0.178;2022-12-26T08:53:30;37.88;;;22.17;;
48524;SDS011;34316;51.514;-0.178;2022-12-26T08:55:33;35.60;;;23.23;;
48524;SDS011;34316;51.514;-0.178;2022-12-26T08:57:34;37.90;;;22.83;;
48524;SDS011;34316;51.514;-0.178;2022-12-26T08:59:36;32.28;;;21.70;;
48524;SDS011;34316;51.514;-0.178;2022-12-26T09:01:38;33.50;;;21.60;;
48524;SDS011;34316;51.514;-0.178;2022-12-26T09:03:40;33.20;;;19.70;;
48524;SDS011;34316;51.514;-0.178;2022-12-26T09:05:43;31.98;;;18.55;;
48524;SDS011;34316;51.514;-0.178;2022-12-26T09:07:45;30.08;;;19.02;;
48524;SDS011;34316;51.514;-0.178;2022-12-26T09:09:48;30.42;;;19.88;;
48524;SDS011;34316;51.514;-0.178;2022-12-26T09:11:49;34.13;;;20.35;;
48524;SDS011;34316;51.514;-0.178;2022-12-26T09:13:52;33.40;;;21.50;;
48524;SDS011;34316;51.514;-0.178;2022-12-26T09:15:54;31.02;;;21.38;;
48524;SDS011;34316;51.514;-0.178;2022-12-26T09:17:56;37.08;;;23.88;;
48524;SDS011;34316;51.514;-0.178;2022-12-26T09:19:58;40.42;;;25.40;;
48524;SDS011;34316;51.514;-0.178;2022-12-26T09:21:59;36.90;;;24.73;;
48524;SDS011;34316;51.514;-0.178;2022-12-26T09:24:21;49.53;;;28.80;;
48524;SDS011;34316;51.514;-0.178;2022-12-26T09:26:23;43.03;;;28.08;;
48524;SDS011;34316;51.514;-0.178;2022-12-26T09:28:25;47.45;;;31.80;;
48524;SDS011;34316;51.514;-0.178;2022-12-26T09:30:27;53.42;;;34.15;;
48524;SDS011;34316;51.514;-0.178;2022-12-26T09:32:33;58.42;;;34.97;;
48524;SDS011;34316;51.514;-0.178;2022-12-26T09:34:35;55.67;;;35.42;;
48524;SDS011;34316;51.514;-0.178;2022-12-26T09:36:37;54.20;;;35.05;;
48524;SDS011;34316;51.514;-0.178;2022-12-26T09:38:39;58.65;;;36.50;;
48524;SDS011;34316;51.514;-0.178;2022-12-26T09:41:01;53.42;;;36.33;;
48524;SDS011;34316;51.514;-0.178;2022-12-26T09:43:22;52.58;;;35.95;;
48524;SDS011;34316;51.514;-0.178;2022-12-26T09:45:33;62.13;;;38.58;;
48524;SDS011;34316;51.514;-0.178;2022-12-26T09:48:45;55.45;;;36.55;;
48524;SDS011;34316;51.514;-0.178;2022-12-26T09:50:16;63.13;;;37.85;;
48524;SDS011;34316;51.514;-0.178;2022-12-26T09:54:43;56.38;;;35.58;;
48524;SDS011;34316;51.514;-0.178;2022-12-26T09:56:50;58.55;;;35.40;;
48524;SDS011;34316;51.514;-0.178;2022-12-26T09:59:16;52.45;;;34.30;;
48524;SDS011;34316;51.514;-0.178;2022-12-26T10:01:25;57.47;;;33.85;;
48524;SDS011;34316;51.514;-0.178;2022-12-26T10:03:29;55.90;;;33.63;;
48524;SDS011;34316;51.514;-0.178;2022-12-26T10:05:33;52.47;;;33.60;;
48524;SDS011;34316;51.514;-0.178;2022-12-26T10:07:39;47.83;;;30.75;;
48524;SDS011;34316;51.514;-0.178;2022-12-26T10:12:23;43.28;;;28.17;;
48524;SDS011;34316;51.514;-0.178;2022-12-26T10:17:00;39.03;;;26.33;;
48524;SDS011;34316;51.514;-0.178;2022-12-26T10:24:03;35.50;;;22.52;;
48524;SDS011;34316;51.514;-0.178;2022-12-26T10:26:15;33.90;;;22.13;;
48524;SDS011;34316;51.514;-0.178;2022-12-26T10:31:02;31.77;;;21.00;;
48524;SDS011;34316;51.514;-0.178;2022-12-26T10:33:27;33.20;;;20.92;;
48524;SDS011;34316;51.514;-0.178;2022-12-26T10:35:41;37.17;;;23.35;;
48524;SDS011;34316;51.514;-0.178;2022-12-26T10:37:44;40.35;;;25.05;;
48524;SDS011;34316;51.514;-0.178;2022-12-26T10:41:54;42.35;;;25.25;;
48524;SDS011;34316;51.514;-0.178;2022-12-26T10:43:58;39.85;;;24.50;;
48524;SDS011;34316;51.514;-0.178;2022-12-26T10:50:17;35.00;;;22.70;;
48524;SDS011;34316;51.514;-0.178;2022-12-26T10:52:32;28.02;;;19.52;;
48524;SDS011;34316;51.514;-0.178;2022-12-26T10:54:35;31.00;;;20.92;;
48524;SDS011;34316;51.514;-0.178;2022-12-26T10:56:37;30.73;;;20.60;;
48524;SDS011;34316;51.514;-0.178;2022-12-26T10:58:39;31.50;;;20.75;;
48524;SDS011;34316;51.514;-0.178;2022-12-26T11:00:41;38.42;;;24.55;;
48524;SDS011;34316;51.514;-0.178;2022-12-26T11:02:43;42.15;;;23.92;;
48524;SDS011;34316;51.514;-0.178;2022-12-26T11:07:27;33.03;;;23.90;;
48524;SDS011;34316;51.514;-0.178;2022-12-26T11:11:43;35.28;;;22.45;;
48524;SDS011;34316;51.514;-0.178;2022-12-26T11:13:53;32.67;;;19.98;;
48524;SDS011;34316;51.514;-0.178;2022-12-26T11:16:02;32.72;;;19.35;;
48524;SDS011;34316;51.514;-0.178;2022-12-26T11:20:28;27.65;;;18.10;;
48524;SDS011;34316;51.514;-0.178;2022-12-26T11:22:31;28.25;;;17.58;;
48524;SDS011;34316;51.514;-0.178;2022-12-26T11:24:32;27.42;;;17.58;;
48524;SDS011;34316;51.514;-0.178;2022-12-26T11:26:35;26.70;;;19.48;;
48524;SDS011;34316;51.514;-0.178;2022-12-26T11:28:37;28.67;;;17.60;;
48524;SDS011;34316;51.514;-0.178;2022-12-26T11:30:39;32.22;;;17.77;;
48524;SDS011;34316;51.514;-0.178;2022-12-26T11:32:42;28.25;;;17.83;;
48524;SDS011;34316;51.514;-0.178;2022-12-26T11:36:48;25.60;;;15.50;;
48524;SDS011;34316;51.514;-0.178;2022-12-26T11:40:54;22.48;;;15.30;;
48524;SDS011;34316;51.514;-0.178;2022-12-26T11:43:15;17.90;;;13.20;;
48524;SDS011;34316;51.514;-0.178;2022-12-26T11:47:22;22.70;;;12.75;;
48524;SDS011;34316;51.514;-0.178;2022-12-26T11:49:37;23.02;;;11.88;;
48524;SDS011;34316;51.514;-0.178;2022-12-26T11:53:43;19.55;;;12.07;;
48524;SDS011;34316;51.514;-0.178;2022-12-26T11:55:56;18.80;;;11.70;;
48524;SDS011;34316;51.514;-0.178;2022-12-26T12:00:14;18.92;;;11.52;;
48524;SDS011;34316;51.514;-0.178;2022-12-26T12:04:27;18.67;;;11.15;;
48524;SDS011;34316;51.514;-0.178;2022-12-26T12:16:29;30.05;;;12.18;;
48524;SDS011;34316;51.514;-0.178;2022-12-26T12:27:41;20.17;;;10.95;;
48524;SDS011;34316;51.514;-0.178;2022-12-26T12:32:30;18.13;;;10.48;;
48524;SDS011;34316;51.514;-0.178;2022-12-26T12:34:45;16.13;;;10.57;;
48524;SDS011;34316;51.514;-0.178;2022-12-26T12:39:18;16.63;;;10.20;;
48524;SDS011;34316;51.514;-0.178;2022-12-26T12:41:38;18.65;;;10.88;;
48524;SDS011;34316;51.514;-0.178;2022-12-26T12:51:05;21.95;;;12.00;;
48524;SDS011;34316;51.514;-0.178;2022-12-26T12:53:43;20.17;;;11.40;;
48524;SDS011;34316;51.514;-0.178;2022-12-26T12:56:08;21.30;;;10.75;;
48524;SDS011;34316;51.514;-0.178;2022-12-26T13:00:46;20.23;;;11.35;;
48524;SDS011;34316;51.514;-0.178;2022-12-26T13:07:20;17.80;;;10.73;;
48524;SDS011;34316;51.514;-0.178;2022-12-26T13:09:36;16.50;;;10.15;;
48524;SDS011;34316;51.514;-0.178;2022-12-26T13:13:51;13.75;;;8.75;;
48524;SDS011;34316;51.514;-0.178;2022-12-26T13:16:04;16.95;;;10.75;;
48524;SDS011;34316;51.514;-0.178;2022-12-26T13:18:14;18.95;;;9.73;;
48524;SDS011;34316;51.514;-0.178;2022-12-26T13:20:24;15.98;;;9.77;;
48524;SDS011;34316;51.514;-0.178;2022-12-26T13:22:29;23.67;;;10.32;;
48524;SDS011;34316;51.514;-0.178;2022-12-26T13:24:57;17.20;;;9.93;;
48524;SDS011;34316;51.514;-0.178;2022-12-26T13:27:10;17.30;;;9.48;;
48524;SDS011;34316;51.514;-0.178;2022-12-26T13:31:34;15.55;;;8.20;;
48524;SDS011;34316;51.514;-0.178;2022-12-26T13:33:37;16.92;;;9.20;;
48524;SDS011;34316;51.514;-0.178;2022-12-26T13:35:49;11.75;;;7.38;;
48524;SDS011;34316;51.514;-0.178;2022-12-26T13:37:54;19.90;;;7.93;;
48524;SDS011;34316;51.514;-0.178;2022-12-26T13:39:58;15.13;;;8.00;;
48524;SDS011;34316;51.514;-0.178;2022-12-26T13:44:44;9.88;;;5.60;;
48524;SDS011;34316;51.514;-0.178;2022-12-26T13:46:54;12.18;;;5.68;;
48524;SDS011;34316;51.514;-0.178;2022-12-26T13:48:58;10.57;;;5.85;;
48524;SDS011;34316;51.514;-0.178;2022-12-26T13:51:00;7.47;;;5.03;;
48524;SDS011;34316;51.514;-0.178;2022-12-26T13:53:06;12.23;;;5.35;;
48524;SDS011;34316;51.514;-0.178;2022-12-26T13:55:29;10.60;;;5.65;;
48524;SDS011;34316;51.514;-0.178;2022-12-26T13:59:35;11.40;;;5.60;;
48524;SDS011;34316;51.514;-0.178;2022-12-26T14:15:59;13.07;;;5.90;;
48524;SDS011;34316;51.514;-0.178;2022-12-26T14:25:23;14.95;;;7.15;;
48524;SDS011;34316;51.514;-0.178;2022-12-26T14:29:47;15.60;;;8.18;;
48524;SDS011;34316;51.514;-0.178;2022-12-26T14:34:46;17.23;;;9.35;;
48524;SDS011;34316;51.514;-0.178;2022-12-26T14:41:17;20.40;;;10.90;;
48524;SDS011;34316;51.514;-0.178;2022-12-26T14:43:38;16.60;;;10.18;;
48524;SDS011;34316;51.514;-0.178;2022-12-26T14:45:42;18.80;;;11.25;;
48524;SDS011;34316;51.514;-0.178;2022-12-26T14:47:49;14.75;;;9.98;;
48524;SDS011;34316;51.514;-0.178;2022-12-26T14:49:51;18.08;;;9.77;;
48524;SDS011;34316;51.514;-0.178;2022-12-26T14:51:52;17.75;;;10.10;;
48524;SDS011;34316;51.514;-0.178;2022-12-26T15:00:32;20.30;;;10.40;;
48524;SDS011;34316;51.514;-0.178;2022-12-26T15:02:35;17.80;;;10.38;;
48524;SDS011;34316;51.514;-0.178;2022-12-26T15:04:50;19.52;;;10.45;;